Time;durP1;ratioP1;P1;durP2;ratioP2;P2;SDS_P1;SDS_P2;PMS_P1;PMS_P2;Temp;Humidity;BMP_temperature;BMP_pressure;BME280_temperature;BME280_humidity;BME280_pressure;Samples;Min_cycle;Max_cycle;Signal;HPM_P1;HPM_P2
2022/12/29 00:00:06;;;;;;;51.90;25.73;;;;;;;6.27;86.28;95747.50;5002109;28;20604;-79
2022/12/29 00:02:31;;;;;;;53.95;28.25;;;;;;;5.99;86.67;95704.31;5001113;28;20426;-79
2022/12/29 00:04:56;;;;;;;47.97;24.80;;;;;;;6.04;86.07;95704.69;4998832;28;20655;-79
2022/12/29 00:07:22;;;;;;;51.63;26.47;;;;;;;6.37;85.59;95745.53;5009698;28;20196;-80
2022/12/29 00:09:47;;;;;;;47.90;25.87;;;;;;;6.46;85.35;95746.38;5000331;28;20184;-80
2022/12/29 00:12:13;;;;;;;50.43;24.30;;;;;;;6.43;84.97;95757.13;5003998;28;20622;-81
2022/12/29 00:17:21;;;;;;;53.43;25.47;;;;;;;6.41;85.51;95751.25;5002116;28;20265;-80
2022/12/29 00:36:19;;;;;;;51.97;26.33;;;;;;;6.27;86.73;95752.72;5001600;28;20272;-81
2022/12/29 00:44:18;;;;;;;56.10;24.87;;;;;;;6.49;86.07;95774.00;5001799;28;20192;-80
2022/12/29 00:46:44;;;;;;;49.67;25.87;;;;;;;6.33;86.20;95748.63;5005247;28;20192;-80
2022/12/29 00:49:30;;;;;;;54.83;29.33;;;;;;;6.38;86.20;95760.25;4998124;28;20911;-79
2022/12/29 00:52:06;;;;;;;60.23;26.83;;;;;;;6.52;86.18;95777.09;4990629;28;20216;-78
2022/12/29 00:54:34;;;;;;;56.23;27.53;;;;;;;6.38;85.84;95749.81;5001953;28;20667;-80
2022/12/29 00:57:00;;;;;;;55.50;27.13;;;;;;;6.57;85.30;95779.22;5000926;28;20184;-80
2022/12/29 00:59:25;;;;;;;52.00;25.77;;;;;;;6.40;85.55;95752.22;5000754;28;20614;-79
2022/12/29 01:01:52;;;;;;;52.10;25.90;;;;;;;6.60;85.53;95771.84;5001180;28;20168;-80
2022/12/29 01:04:19;;;;;;;49.73;25.57;;;;;;;6.57;85.43;95772.19;4996783;28;20173;-80
2022/12/29 01:06:44;;;;;;;52.58;28.13;;;;;;;6.46;85.92;95771.69;4995047;28;20463;-80
2022/12/29 01:11:54;;;;;;;35.63;20.37;;;;;;;6.48;86.06;95764.50;5000510;28;20259;-80
2022/12/29 01:14:21;;;;;;;42.57;22.50;;;;;;;6.27;85.96;95741.44;5000906;28;20632;-79
2022/12/29 01:16:46;;;;;;;43.13;22.33;;;;;;;6.37;85.35;95753.38;5001587;28;20640;-81
2022/12/29 01:19:13;;;;;;;40.17;21.03;;;;;;;6.45;85.62;95765.66;5000655;28;20246;-81
2022/12/29 01:21:38;;;;;;;36.57;21.30;;;;;;;6.42;85.33;95753.72;5003241;28;20172;-80
2022/12/29 01:24:04;;;;;;;27.97;15.90;;;;;;;6.45;85.25;95760.41;5002167;28;20277;-81
2022/12/29 01:26:29;;;;;;;26.50;15.20;;;;;;;6.41;85.40;95759.09;5002939;28;20997;-81
2022/12/29 01:28:54;;;;;;;23.90;13.30;;;;;;;6.31;84.93;95734.94;4998750;28;20187;-81
2022/12/29 01:31:20;;;;;;;24.40;13.20;;;;;;;6.30;84.78;95731.50;4999551;28;20408;-80
2022/12/29 01:33:45;;;;;;;23.67;12.17;;;;;;;6.39;84.86;95748.00;5005024;28;20697;-80
2022/12/29 01:36:14;;;;;;;22.43;11.80;;;;;;;6.37;84.66;95749.97;4999423;28;20228;-81
2022/12/29 01:38:39;;;;;;;22.63;12.43;;;;;;;6.32;84.76;95724.28;5000623;28;20181;-81
2022/12/29 01:41:06;;;;;;;23.97;12.23;;;;;;;6.38;84.36;95735.91;5000219;28;20267;-81
2022/12/29 01:44:00;;;;;;;26.40;16.05;;;;;;;6.36;84.69;95733.44;5001792;28;20494;-81
2022/12/29 01:46:32;;;;;;;28.80;14.30;;;;;;;6.33;85.23;95741.59;4997831;28;20654;-81
2022/12/29 01:49:18;;;;;;;25.90;15.07;;;;;;;6.11;85.47;95708.28;5004946;28;20259;-81
2022/12/29 01:52:05;;;;;;;33.70;16.97;;;;;;;6.26;85.87;95734.56;4998357;28;20177;-81
2022/12/29 01:54:37;;;;;;;31.13;16.80;;;;;;;6.27;85.74;95726.56;4993240;28;20613;-81
2022/12/29 01:57:08;;;;;;;25.40;14.50;;;;;;;6.15;85.39;95711.34;5000945;28;20186;-81
2022/12/29 01:59:39;;;;;;;31.93;15.07;;;;;;;6.31;85.12;95733.09;4993244;28;20173;-81
2022/12/29 02:02:05;;;;;;;30.17;16.00;;;;;;;6.27;85.23;95736.22;4999765;28;20181;-81
2022/12/29 02:04:32;;;;;;;27.17;15.13;;;;;;;6.24;85.44;95726.88;5000553;28;20189;-81
2022/12/29 02:07:05;;;;;;;25.17;14.87;;;;;;;6.30;85.40;95722.84;5000660;28;20205;-81
2022/12/29 02:09:31;;;;;;;30.60;16.57;;;;;;;6.16;85.78;95716.44;4992720;28;20613;-81
2022/12/29 02:11:58;;;;;;;29.90;17.10;;;;;;;6.06;86.00;95708.75;5000475;28;20633;-81
2022/12/29 02:14:23;;;;;;;32.70;16.90;;;;;;;6.05;85.95;95696.66;5000525;28;20264;-81
2022/12/29 02:17:16;;;;;;;30.90;16.33;;;;;;;6.17;86.29;95720.69;5000434;28;20256;-81
2022/12/29 02:19:55;;;;;;;31.40;16.80;;;;;;;6.10;85.81;95690.94;5000448;28;20200;-81
2022/12/29 02:22:45;;;;;;;31.63;16.93;;;;;;;6.27;85.91;95720.53;4992889;28;20188;-80
2022/12/29 02:25:22;;;;;;;33.00;16.70;;;;;;;6.31;85.39;95722.66;4993047;28;20188;-81
2022/12/29 02:28:04;;;;;;;27.77;15.53;;;;;;;6.13;85.37;95693.25;4991296;28;20706;-81
2022/12/29 02:31:00;;;;;;;27.40;15.47;;;;;;;6.29;85.08;95716.78;5000831;28;20177;-81
2022/12/29 02:33:49;;;;;;;26.57;14.17;;;;;;;6.29;85.15;95710.72;4998071;28;20173;-81
2022/12/29 02:36:34;;;;;;;29.97;15.30;;;;;;;6.19;85.09;95702.22;5013617;28;20644;-81
2022/12/29 02:39:10;;;;;;;27.50;14.83;;;;;;;6.22;85.54;95720.22;5006290;28;20207;-81
2022/12/29 02:41:57;;;;;;;32.67;17.58;;;;;;;6.22;85.73;95728.06;5004744;28;20500;-81
2022/12/29 02:44:50;;;;;;;33.00;18.13;;;;;;;6.21;85.66;95722.00;5006607;28;20571;-81
2022/12/29 02:47:30;;;;;;;34.47;16.80;;;;;;;6.15;86.07;95729.66;5003569;28;20212;-81
2022/12/29 02:50:13;;;;;;;33.10;18.83;;;;;;;6.11;86.56;95726.56;5000881;28;20524;-81
2022/12/29 02:52:46;;;;;;;26.63;15.60;;;;;;;5.96;86.66;95699.44;5002273;28;20176;-81
2022/12/29 02:55:12;;;;;;;26.47;15.63;;;;;;;6.12;86.66;95720.38;5005679;28;20214;-80
2022/12/29 02:57:37;;;;;;;28.93;15.70;;;;;;;6.18;85.91;95716.28;5005117;28;20259;-81
2022/12/29 03:00:07;;;;;;;42.87;19.60;;;;;;;6.19;85.93;95713.50;5002959;28;20503;-81
2022/12/29 03:02:58;;;;;;;35.53;17.70;;;;;;;6.14;86.46;95704.53;5003509;28;20324;-81
2022/12/29 03:05:32;;;;;;;32.80;18.20;;;;;;;6.12;86.27;95715.13;5002275;28;20172;-81
2022/12/29 03:08:13;;;;;;;33.47;18.30;;;;;;;6.11;86.50;95704.84;4997100;28;20235;-81
2022/12/29 03:12:07;;;;;;;30.77;17.33;;;;;;;6.09;86.60;95706.78;5002982;28;20727;-81
2022/12/29 03:17:14;;;;;;;30.57;16.00;;;;;;;6.21;86.51;95693.25;5004661;28;20626;-80
2022/12/29 03:19:46;;;;;;;29.23;15.20;;;;;;;6.26;86.62;95696.19;5001649;28;20183;-81
2022/12/29 03:22:28;;;;;;;28.40;14.20;;;;;;;6.28;86.03;95696.84;5005357;28;20679;-81
2022/12/29 03:25:11;;;;;;;28.92;16.90;;;;;;;6.25;85.53;95697.16;4995304;28;20427;-81
2022/12/29 03:27:42;;;;;;;35.83;16.37;;;;;;;6.19;85.60;95704.84;4999606;28;20699;-81
2022/12/29 03:30:08;;;;;;;30.80;15.83;;;;;;;6.17;85.73;95698.94;5005443;28;20659;-81
2022/12/29 03:32:50;;;;;;;28.77;15.47;;;;;;;5.98;85.45;95681.78;5000099;28;20220;-81
2022/12/29 03:35:20;;;;;;;27.00;15.07;;;;;;;6.01;85.24;95694.53;5003313;28;20185;-81
2022/12/29 03:38:00;;;;;;;28.03;14.50;;;;;;;5.93;85.23;95689.31;5004012;28;20184;-81
2022/12/29 03:40:27;;;;;;;25.57;15.50;;;;;;;5.91;85.73;95693.88;5004802;28;20603;-80
2022/12/29 03:42:53;;;;;;;27.07;16.37;;;;;;;5.79;85.82;95695.97;5003292;28;20314;-81
2022/12/29 03:45:19;;;;;;;30.50;15.90;;;;;;;5.63;86.50;95695.91;5002502;28;20260;-81
2022/12/29 03:47:45;;;;;;;28.50;16.30;;;;;;;5.66;86.38;95706.84;5001595;28;20220;-81
2022/12/29 03:50:12;;;;;;;28.33;15.63;;;;;;;5.61;86.14;95708.31;5004519;28;20179;-81
2022/12/29 03:52:38;;;;;;;33.13;18.97;;;;;;;5.46;86.91;95709.88;5000308;28;20180;-81
2022/12/29 03:55:04;;;;;;;30.93;17.30;;;;;;;5.27;86.93;95698.75;5006531;28;20177;-78
2022/12/29 03:57:29;;;;;;;28.73;17.90;;;;;;;5.34;86.72;95719.00;5001819;28;20180;-80
2022/12/29 03:59:55;;;;;;;30.40;17.37;;;;;;;5.29;86.53;95714.22;5000820;28;20753;-81
2022/12/29 04:02:20;;;;;;;41.40;19.57;;;;;;;4.94;86.87;95669.06;4999422;28;20181;-80
2022/12/29 04:04:46;;;;;;;43.27;20.60;;;;;;;5.13;86.84;95693.28;5000209;28;20208;-80
2022/12/29 04:07:11;;;;;;;47.07;23.43;;;;;;;5.24;87.31;95722.53;5004148;28;20201;-81
2022/12/29 04:09:36;;;;;;;46.27;24.57;;;;;;;5.15;87.29;95723.47;5005682;28;20539;-81
2022/12/29 04:12:02;;;;;;;50.93;24.90;;;;;;;5.21;87.05;95722.03;5008189;28;20177;-81
2022/12/29 04:14:27;;;;;;;44.87;21.93;;;;;;;5.06;86.98;95692.28;4997202;28;20527;-80
2022/12/29 04:16:53;;;;;;;42.10;23.13;;;;;;;5.16;86.62;95725.09;5000827;28;20645;-80
2022/12/29 04:19:18;;;;;;;41.60;21.53;;;;;;;5.09;86.66;95728.50;5001947;28;20260;-80
2022/12/29 04:21:44;;;;;;;42.07;23.30;;;;;;;4.93;87.56;95726.59;4996499;28;20260;-80
2022/12/29 04:24:09;;;;;;;45.17;23.20;;;;;;;4.84;88.10;95724.94;4989889;28;20228;-79
2022/12/29 04:26:34;;;;;;;45.97;23.40;;;;;;;4.80;88.23;95723.59;4995153;28;20228;-78
2022/12/29 04:29:00;;;;;;;41.07;21.10;;;;;;;4.79;88.30;95727.19;4999812;28;20184;-77
2022/12/29 04:31:25;;;;;;;40.77;21.33;;;;;;;4.76;88.78;95733.50;5007493;28;20192;-78
2022/12/29 04:33:51;;;;;;;46.47;24.20;;;;;;;4.72;88.69;95734.78;4998774;28;20260;-79
2022/12/29 04:36:16;;;;;;;41.50;22.83;;;;;;;4.61;88.74;95719.41;4997425;28;20184;-79
2022/12/29 04:38:41;;;;;;;47.13;24.10;;;;;;;4.69;87.88;95736.88;5006149;28;20203;-81
2022/12/29 04:41:07;;;;;;;46.93;24.53;;;;;;;4.61;87.99;95735.03;5000889;28;20215;-80
2022/12/29 04:43:32;;;;;;;54.50;26.63;;;;;;;4.60;88.13;95745.63;5001360;28;20259;-81
2022/12/29 04:45:58;;;;;;;57.03;30.73;;;;;;;4.18;89.18;95692.38;4999968;28;20422;-81
2022/12/29 04:48:23;;;;;;;56.13;27.83;;;;;;;4.48;89.39;95745.06;5001814;28;20184;-82
2022/12/29 04:50:49;;;;;;;52.07;28.03;;;;;;;4.29;88.84;95717.38;5010037;28;20609;-80
2022/12/29 04:53:16;;;;;;;61.77;28.53;;;;;;;4.53;88.63;95753.22;4997874;28;20180;-82
2022/12/29 04:55:42;;;;;;;54.90;25.67;;;;;;;4.48;88.54;95751.09;5008119;28;20176;-80
2022/12/29 04:58:07;;;;;;;53.47;27.60;;;;;;;4.27;88.21;95710.66;5008203;28;20654;-79
2022/12/29 05:00:33;;;;;;;56.50;28.47;;;;;;;4.58;88.47;95758.84;5003723;28;20184;-80
2022/12/29 05:02:59;;;;;;;52.40;27.67;;;;;;;4.33;89.09;95723.91;5003419;28;20182;-79
2022/12/29 05:05:24;;;;;;;54.23;26.73;;;;;;;4.23;88.62;95718.00;5003362;28;20188;-80
2022/12/29 05:07:50;;;;;;;56.40;28.37;;;;;;;4.55;88.65;95762.53;5003027;28;20270;-78
2022/12/29 05:10:15;;;;;;;57.63;31.33;;;;;;;4.52;89.09;95751.59;5002608;28;20272;-79
2022/12/29 05:12:41;;;;;;;55.50;29.13;;;;;;;4.37;88.89;95733.06;5000032;28;20588;-80
2022/12/29 05:15:07;;;;;;;57.50;31.27;;;;;;;4.53;89.27;95766.25;5000718;28;20185;-80
2022/12/29 05:17:33;;;;;;;60.47;29.90;;;;;;;4.44;88.71;95728.06;4991826;28;20181;-80
2022/12/29 05:19:59;;;;;;;57.20;30.03;;;;;;;4.24;88.85;95700.56;5004011;28;20299;-80
2022/12/29 05:22:25;;;;;;;60.72;35.42;;;;;;;4.62;89.28;95757.53;4990412;28;20443;-79
2022/12/29 05:24:50;;;;;;;57.73;30.43;;;;;;;4.70;89.28;95765.41;5003193;28;20183;-80
2022/12/29 05:27:15;;;;;;;56.77;28.87;;;;;;;4.42;88.65;95704.75;5002711;28;20614;-79
2022/12/29 05:29:41;;;;;;;67.83;34.27;;;;;;;4.40;88.61;95692.88;5002850;28;20172;-79
2022/12/29 05:32:06;;;;;;;82.43;34.73;;;;;;;4.75;88.73;95765.81;4997193;28;20173;-79
2022/12/29 05:34:32;;;;;;;83.90;37.17;;;;;;;4.55;89.66;95741.69;4999757;28;20560;-80
2022/12/29 05:36:57;;;;;;;83.93;37.80;;;;;;;4.43;90.01;95716.00;5001113;28;20224;-79
2022/12/29 05:39:22;;;;;;;72.73;36.20;;;;;;;4.71;89.97;95768.84;4992631;28;20181;-79
2022/12/29 05:41:48;;;;;;;66.63;35.17;;;;;;;4.68;90.45;95766.53;4991920;28;20650;-79
2022/12/29 05:44:14;;;;;;;69.60;33.83;;;;;;;4.71;90.50;95763.63;5005304;28;20551;-79
2022/12/29 05:46:39;;;;;;;73.20;38.33;;;;;;;4.71;90.54;95761.84;4998443;28;20440;-79
2022/12/29 05:49:05;;;;;;;71.67;36.53;;;;;;;4.68;90.06;95743.06;5002787;28;20180;-80
2022/12/29 05:51:30;;;;;;;72.13;35.37;;;;;;;4.73;90.28;95744.25;5004291;28;20208;-79
2022/12/29 05:53:56;;;;;;;66.40;34.73;;;;;;;4.74;89.96;95732.03;4998276;28;20184;-79
2022/12/29 05:56:22;;;;;;;64.47;34.97;;;;;;;4.69;89.96;95709.00;4991375;28;20180;-80
2022/12/29 05:58:47;;;;;;;69.20;36.30;;;;;;;4.97;89.47;95758.41;5004441;28;20180;-80
2022/12/29 06:01:13;;;;;;;73.30;34.60;;;;;;;4.93;89.80;95757.91;5006409;28;20255;-80
2022/12/29 06:03:38;;;;;;;63.10;34.30;;;;;;;5.01;90.07;95775.41;5003127;28;20181;-79
2022/12/29 06:06:04;;;;;;;64.57;34.23;;;;;;;5.10;90.09;95775.28;5002991;28;20188;-79
2022/12/29 06:08:29;;;;;;;62.60;33.23;;;;;;;5.07;89.79;95759.97;5004042;28;20180;-77
2022/12/29 06:10:55;;;;;;;65.83;34.57;;;;;;;5.19;89.85;95776.19;5004182;28;20204;-79
2022/12/29 06:13:20;;;;;;;73.82;36.97;;;;;;;4.88;89.49;95727.06;5000948;28;20443;-79
2022/12/29 06:15:48;;;;;;;63.10;34.57;;;;;;;5.28;89.51;95780.44;5006127;28;20216;-79
2022/12/29 06:18:14;;;;;;;62.27;32.10;;;;;;;5.34;89.44;95787.69;5004379;28;20173;-79
2022/12/29 06:20:39;;;;;;;63.30;34.17;;;;;;;5.33;89.45;95783.44;5004766;28;20173;-80
2022/12/29 06:23:05;;;;;;;63.63;35.23;;;;;;;5.10;89.64;95732.75;5007305;28;20226;-79
2022/12/29 06:25:32;;;;;;;69.20;35.70;;;;;;;5.39;89.99;95782.78;5004357;28;20984;-79
2022/12/29 06:27:58;;;;;;;71.77;38.17;;;;;;;5.32;89.54;95758.28;5002731;28;20207;-79
2022/12/29 06:30:23;;;;;;;77.70;36.53;;;;;;;5.58;89.19;95789.56;5010031;28;20168;-79
2022/12/29 06:32:48;;;;;;;78.97;37.47;;;;;;;5.61;88.82;95781.44;5009409;28;20165;-80
2022/12/29 06:35:14;;;;;;;79.87;37.47;;;;;;;5.57;89.22;95760.03;5004030;28;20191;-79
2022/12/29 06:37:39;;;;;;;88.73;40.43;;;;;;;5.65;89.12;95770.50;5003885;28;20209;-79
2022/12/29 06:40:06;;;;;;;83.63;39.17;;;;;;;5.93;88.79;95791.22;5003826;28;20181;-79
2022/12/29 06:42:31;;;;;;;76.23;36.07;;;;;;;5.96;88.44;95781.25;5003370;28;20206;-80
2022/12/29 06:44:58;;;;;;;74.23;35.90;;;;;;;5.98;87.89;95788.91;5011373;28;20185;-79
2022/12/29 06:47:24;;;;;;;83.70;37.80;;;;;;;6.01;87.94;95786.81;5000733;28;20591;-79
2022/12/29 06:49:49;;;;;;;67.73;33.77;;;;;;;5.89;88.23;95768.97;5014339;28;20234;-80
2022/12/29 06:52:15;;;;;;;65.70;34.03;;;;;;;6.21;88.04;95799.63;5014546;28;20766;-79
2022/12/29 06:54:40;;;;;;;57.90;29.40;;;;;;;6.32;87.98;95789.66;5007386;28;20300;-79
2022/12/29 06:57:06;;;;;;;41.70;23.47;;;;;;;6.32;87.97;95755.66;4995004;28;20573;-79
2022/12/29 06:59:31;;;;;;;37.97;21.20;;;;;;;7.00;86.39;95791.97;5003583;28;20173;-79
2022/12/29 07:01:56;;;;;;;54.63;28.00;;;;;;;7.44;84.02;95797.59;5000528;28;20259;-79
2022/12/29 07:04:22;;;;;;;55.13;28.87;;;;;;;7.66;82.25;95800.47;5003597;28;20584;-79
2022/12/29 07:06:47;;;;;;;37.20;20.63;;;;;;;7.58;80.98;95781.19;4997959;28;20212;-79
2022/12/29 07:09:13;;;;;;;38.83;19.27;;;;;;;7.72;80.81;95791.94;4998312;28;20204;-79
2022/12/29 07:11:38;;;;;;;32.87;16.60;;;;;;;8.01;79.94;95793.94;5003776;28;20172;-79
2022/12/29 07:14:03;;;;;;;24.47;13.53;;;;;;;8.68;77.91;95803.72;5005188;28;20707;-79
2022/12/29 07:16:29;;;;;;;30.90;14.30;;;;;;;9.34;75.36;95811.88;5007818;28;20181;-79
2022/12/29 07:18:56;;;;;;;23.97;13.43;;;;;;;9.69;72.87;95779.59;5004123;28;20191;-79
2022/12/29 07:21:22;;;;;;;34.53;14.07;;;;;;;10.45;70.53;95806.44;4998507;28;20239;-79
2022/12/29 07:23:47;;;;;;;21.20;13.40;;;;;;;11.12;67.76;95814.78;5002859;28;20220;-79
2022/12/29 07:26:17;;;;;;;29.20;15.17;;;;;;;11.63;65.61;95783.72;5002617;28;20676;-80
2022/12/29 07:28:42;;;;;;;23.43;13.13;;;;;;;12.71;62.56;95819.13;4998154;28;20631;-79
2022/12/29 07:31:15;;;;;;;23.43;13.13;;;;;;;13.18;59.87;95816.34;5004823;28;20219;-77
2022/12/29 07:33:40;;;;;;;19.90;12.03;;;;;;;13.85;57.96;95802.03;4996937;28;20208;-78
2022/12/29 07:36:06;;;;;;;23.97;13.57;;;;;;;14.39;55.72;95808.81;5000504;28;20620;-78
2022/12/29 07:38:32;;;;;;;22.40;13.53;;;;;;;14.84;55.14;95808.78;5004748;28;20169;-78
2022/12/29 07:40:58;;;;;;;24.10;13.50;;;;;;;15.08;53.17;95794.75;5003354;28;20248;-78
2022/12/29 07:43:23;;;;;;;28.50;13.17;;;;;;;15.06;52.73;95788.81;4992546;28;20166;-78
2022/12/29 07:45:49;;;;;;;22.33;12.73;;;;;;;14.49;54.37;95803.06;5003791;28;20187;-78
2022/12/29 07:48:14;;;;;;;22.37;13.40;;;;;;;13.73;55.55;95785.19;5001003;28;20208;-80
2022/12/29 07:50:39;;;;;;;29.63;17.70;;;;;;;13.14;57.25;95807.22;4998133;28;20181;-80
2022/12/29 07:53:05;;;;;;;28.50;16.80;;;;;;;12.44;59.36;95811.13;5001014;28;20180;-80
2022/12/29 07:55:32;;;;;;;28.40;16.30;;;;;;;11.72;61.48;95795.75;4998039;28;20263;-79
2022/12/29 07:57:57;;;;;;;24.03;13.70;;;;;;;11.33;63.41;95809.47;4997639;28;20181;-79
2022/12/29 08:00:22;;;;;;;25.30;14.10;;;;;;;10.89;65.01;95804.47;5001996;28;20184;-80
2022/12/29 08:02:49;;;;;;;24.50;14.23;;;;;;;10.57;66.14;95818.09;4992735;28;20184;-80
2022/12/29 08:05:15;;;;;;;24.60;15.13;;;;;;;10.30;67.98;95822.25;4999925;28;20177;-79
2022/12/29 08:07:43;;;;;;;25.67;15.20;;;;;;;10.05;68.80;95800.69;5001426;28;20201;-80
2022/12/29 08:10:08;;;;;;;27.20;15.47;;;;;;;9.91;69.66;95809.41;5002780;28;20181;-79
2022/12/29 08:12:34;;;;;;;31.43;14.97;;;;;;;9.74;70.33;95805.34;4999488;28;20187;-80
2022/12/29 08:14:59;;;;;;;27.33;15.93;;;;;;;9.66;71.02;95813.34;5002485;28;20191;-79
2022/12/29 08:17:24;;;;;;;25.60;14.70;;;;;;;9.64;71.67;95820.56;5002146;28;20169;-79
2022/12/29 08:19:50;;;;;;;27.00;16.20;;;;;;;9.54;72.16;95817.41;5001018;28;20227;-79
2022/12/29 08:22:15;;;;;;;22.83;13.67;;;;;;;9.48;72.00;95794.47;5001500;28;20204;-79
2022/12/29 08:24:41;;;;;;;23.23;13.40;;;;;;;9.55;71.51;95801.44;5001072;28;20173;-79
2022/12/29 08:27:06;;;;;;;27.03;13.50;;;;;;;9.91;71.60;95805.97;5000581;28;20283;-79
2022/12/29 08:29:31;;;;;;;22.40;13.33;;;;;;;10.36;70.65;95818.09;5004667;28;20226;-80
2022/12/29 08:31:57;;;;;;;24.70;14.43;;;;;;;10.68;68.31;95808.91;5000858;28;20210;-80
2022/12/29 08:34:22;;;;;;;23.90;13.80;;;;;;;11.04;67.74;95814.09;4999305;28;20264;-77
2022/12/29 08:36:48;;;;;;;29.53;14.97;;;;;;;11.43;65.49;95790.69;4997544;28;20191;-78
2022/12/29 08:39:13;;;;;;;22.10;12.97;;;;;;;12.07;63.94;95806.28;5002359;28;20234;-78
2022/12/29 08:41:39;;;;;;;28.67;15.10;;;;;;;12.55;62.82;95816.81;4994905;28;20181;-78
2022/12/29 08:44:04;;;;;;;27.93;15.30;;;;;;;12.96;61.81;95817.53;4998879;28;20621;-78
2022/12/29 08:46:30;;;;;;;22.53;12.87;;;;;;;13.23;59.65;95816.53;4999591;28;20207;-78
2022/12/29 08:48:55;;;;;;;24.43;12.87;;;;;;;13.32;59.30;95824.31;4996627;28;20219;-78
2022/12/29 08:51:21;;;;;;;22.00;14.60;;;;;;;13.17;58.96;95827.94;4999478;28;20168;-78
2022/12/29 08:53:46;;;;;;;22.90;14.17;;;;;;;12.98;59.70;95820.75;4998984;28;20184;-78
2022/12/29 08:56:12;;;;;;;27.07;16.70;;;;;;;12.82;60.63;95816.69;5003150;28;20237;-77
2022/12/29 08:58:37;;;;;;;27.53;16.33;;;;;;;12.68;60.17;95814.22;5002508;28;20177;-76
2022/12/29 09:01:03;;;;;;;24.47;15.50;;;;;;;12.78;61.00;95804.91;5002801;28;20607;-75
2022/12/29 09:03:29;;;;;;;24.40;15.63;;;;;;;12.90;60.20;95799.81;5004062;28;20702;-76
2022/12/29 09:05:55;;;;;;;25.20;14.27;;;;;;;12.92;60.30;95810.19;5000859;28;20234;-78
2022/12/29 09:08:22;;;;;;;23.30;14.07;;;;;;;12.90;60.84;95797.19;4996738;28;20185;-77
2022/12/29 09:10:47;;;;;;;24.33;13.83;;;;;;;13.02;60.75;95800.84;5000875;28;20670;-77
2022/12/29 09:13:14;;;;;;;21.10;12.53;;;;;;;13.25;61.35;95797.03;5000471;28;20259;-77
2022/12/29 09:15:40;;;;;;;27.10;15.73;;;;;;;13.34;58.14;95786.03;5000970;28;20165;-78
2022/12/29 09:18:07;;;;;;;27.73;17.40;;;;;;;13.24;59.22;95767.13;5007243;28;20278;-77
2022/12/29 09:20:32;;;;;;;28.07;16.27;;;;;;;13.42;58.89;95772.59;5007514;28;20180;-77
2022/12/29 09:22:58;;;;;;;35.53;19.57;;;;;;;13.77;59.26;95791.66;4996314;28;20235;-78
2022/12/29 09:25:24;;;;;;;30.87;17.77;;;;;;;13.98;57.74;95774.72;4997155;28;20292;-78
2022/12/29 09:27:52;;;;;;;23.20;13.97;;;;;;;14.11;57.20;95768.53;5000563;28;20247;-78
2022/12/29 09:30:19;;;;;;;22.70;14.13;;;;;;;14.31;56.38;95774.56;4999730;28;20668;-79
2022/12/29 09:32:45;;;;;;;23.33;13.80;;;;;;;14.00;55.43;95766.56;5003886;28;20179;-78
2022/12/29 09:35:10;;;;;;;23.60;12.77;;;;;;;13.99;56.55;95784.28;5002057;28;20177;-78
2022/12/29 09:37:36;;;;;;;22.40;13.40;;;;;;;14.02;57.17;95775.09;5003917;28;20184;-78
2022/12/29 09:40:02;;;;;;;23.23;13.37;;;;;;;14.04;57.28;95775.72;5000841;28;20250;-78
2022/12/29 09:42:37;;;;;;;20.43;11.60;;;;;;;14.03;57.73;95755.53;5000071;28;20192;-78
2022/12/29 09:45:22;;;;;;;23.13;13.60;;;;;;;13.84;56.57;95747.47;4996931;28;20184;-76
2022/12/29 09:47:47;;;;;;;22.17;12.97;;;;;;;13.82;57.80;95762.75;5006310;28;20609;-76
2022/12/29 09:50:28;;;;;;;22.40;12.23;;;;;;;13.74;57.81;95764.81;4996971;28;20187;-76
2022/12/29 09:53:29;;;;;;;20.63;12.37;;;;;;;13.73;58.18;95760.53;5007600;28;20187;-76
2022/12/29 09:55:57;;;;;;;20.00;11.93;;;;;;;13.58;57.86;95748.34;4994969;28;20188;-77
2022/12/29 09:58:30;;;;;;;23.00;12.73;;;;;;;13.33;58.64;95742.09;4996460;28;20185;-77
2022/12/29 10:01:33;;;;;;;25.10;15.13;;;;;;;13.20;60.04;95750.06;5000487;28;20177;-76
2022/12/29 10:04:02;;;;;;;29.30;15.97;;;;;;;12.80;59.46;95726.22;4999617;28;20200;-76
2022/12/29 10:07:03;;;;;;;31.00;15.63;;;;;;;12.69;60.75;95739.25;4998642;28;20323;-77
2022/12/29 10:10:07;;;;;;;28.17;15.63;;;;;;;12.33;60.96;95729.00;4981265;28;20213;-79
2022/12/29 10:13:13;;;;;;;24.87;14.00;;;;;;;12.15;60.97;95729.59;4989131;28;20656;-78
2022/12/29 10:16:10;;;;;;;25.03;13.77;;;;;;;12.00;61.25;95729.75;4980090;28;20644;-79
2022/12/29 10:19:00;;;;;;;22.73;12.10;;;;;;;12.07;63.11;95740.31;4998370;28;20549;-78
2022/12/29 10:21:45;;;;;;;26.90;13.67;;;;;;;11.99;62.84;95733.38;5002011;28;20192;-78
2022/12/29 10:24:12;;;;;;;28.30;13.80;;;;;;;11.78;63.53;95699.19;4992413;28;20220;-79
2022/12/29 10:26:45;;;;;;;25.33;13.60;;;;;;;11.87;63.72;95716.50;4999551;28;20201;-77
2022/12/29 10:29:18;;;;;;;25.60;14.00;;;;;;;11.87;62.83;95723.59;4997282;28;20259;-78
2022/12/29 10:31:58;;;;;;;32.10;14.10;;;;;;;11.91;65.22;95717.72;4999597;28;20636;-78
2022/12/29 10:34:36;;;;;;;22.67;14.87;;;;;;;11.97;64.80;95716.13;4995508;28;20230;-77
2022/12/29 10:37:17;;;;;;;28.43;15.53;;;;;;;11.82;63.99;95712.81;5005341;28;20655;-77
2022/12/29 10:39:49;;;;;;;24.93;15.00;;;;;;;11.73;64.52;95718.25;5001970;28;20172;-77
2022/12/29 10:42:26;;;;;;;23.90;15.13;;;;;;;11.71;64.39;95709.69;5000725;28;20271;-77
2022/12/29 10:44:53;;;;;;;25.67;14.47;;;;;;;11.64;64.27;95686.94;5003551;28;20168;-77
2022/12/29 10:47:24;;;;;;;22.20;14.60;;;;;;;11.64;64.15;95693.03;5004645;28;20235;-77
2022/12/29 10:49:50;;;;;;;28.07;14.73;;;;;;;11.64;63.94;95697.50;5005541;28;20184;-75
2022/12/29 10:52:17;;;;;;;31.10;15.00;;;;;;;11.62;63.67;95695.06;4992841;28;20185;-76
2022/12/29 10:54:49;;;;;;;27.70;15.77;;;;;;;11.57;63.63;95684.28;4996034;28;20273;-76
2022/12/29 10:57:25;;;;;;;26.53;15.00;;;;;;;11.76;65.06;95695.16;4993766;28;20181;-76
2022/12/29 10:59:50;;;;;;;25.47;15.10;;;;;;;11.75;64.76;95689.06;4999045;28;20187;-76
2022/12/29 11:02:37;;;;;;;25.30;15.77;;;;;;;11.77;65.00;95680.94;4993782;28;20656;-76
2022/12/29 11:05:18;;;;;;;24.03;14.40;;;;;;;11.47;67.33;95685.66;5000000;28;20263;-76
2022/12/29 11:07:47;;;;;;;24.90;14.40;;;;;;;11.41;66.00;95655.63;4996162;28;20747;-75
2022/12/29 11:10:40;;;;;;;27.60;15.07;;;;;;;11.61;64.81;95674.16;4992812;28;20260;-74
2022/12/29 11:13:12;;;;;;;28.73;14.63;;;;;;;11.65;65.48;95665.66;4996698;28;20193;-75
2022/12/29 11:15:46;;;;;;;28.13;15.23;;;;;;;11.73;64.99;95669.94;4993265;28;20182;-76
2022/12/29 11:18:24;;;;;;;28.07;14.73;;;;;;;11.58;66.09;95635.00;4991979;28;20173;-74
2022/12/29 11:20:52;;;;;;;28.40;15.17;;;;;;;11.76;65.55;95664.31;4993988;28;20187;-76
2022/12/29 11:23:39;;;;;;;32.97;16.07;;;;;;;11.73;64.48;95659.41;5012498;28;20227;-74
2022/12/29 11:26:12;;;;;;;27.63;14.87;;;;;;;11.78;64.59;95661.47;4999552;28;20222;-75
2022/12/29 11:28:39;;;;;;;23.63;14.17;;;;;;;11.65;64.11;95660.38;5002110;28;20203;-75
2022/12/29 11:31:07;;;;;;;24.53;15.57;;;;;;;11.56;64.35;95664.19;5007974;28;20588;-77
2022/12/29 11:33:35;;;;;;;31.37;16.13;;;;;;;11.39;65.24;95652.34;5002071;28;20655;-75
2022/12/29 11:36:13;;;;;;;33.53;15.73;;;;;;;11.50;65.29;95661.53;5002420;28;20326;-76
2022/12/29 11:38:49;;;;;;;27.90;16.63;;;;;;;11.55;66.19;95661.75;4998525;28;20220;-76
2022/12/29 11:41:25;;;;;;;27.23;14.87;;;;;;;11.60;65.65;95654.88;5012327;28;20709;-76
2022/12/29 11:43:53;;;;;;;35.47;16.63;;;;;;;11.64;65.12;95653.47;4999659;28;20169;-76
2022/12/29 11:46:31;;;;;;;31.80;15.27;;;;;;;11.62;65.71;95629.13;5004487;28;20529;-76
2022/12/29 11:49:00;;;;;;;31.83;15.33;;;;;;;11.72;65.49;95657.75;5010237;28;20192;-75
2022/12/29 11:51:30;;;;;;;25.83;15.13;;;;;;;11.65;65.55;95647.19;5011087;28;20554;-75
2022/12/29 11:54:02;;;;;;;32.47;14.03;;;;;;;11.68;65.57;95640.69;4998862;28;20649;-75
2022/12/29 11:56:41;;;;;;;23.67;14.53;;;;;;;11.64;65.86;95645.56;4990919;28;20180;-75
2022/12/29 11:59:31;;;;;;;27.00;13.90;;;;;;;11.60;66.23;95646.97;4991307;28;20577;-78
2022/12/29 12:01:59;;;;;;;29.50;14.87;;;;;;;11.49;65.51;95634.38;4987931;28;20272;-77
2022/12/29 12:04:28;;;;;;;25.80;14.83;;;;;;;11.56;65.23;95643.09;4992449;28;20177;-77